createdAt,value
2022-12-12T00:01:12.702Z,-8.62
2022-12-12T00:04:14.324Z,-8.59
2022-12-12T00:07:15.802Z,-8.72
2022-12-12T00:10:17.403Z,-8.80
2022-12-12T00:13:19.032Z,-8.78
2022-12-12T00:16:20.870Z,-8.82
2022-12-12T00:19:22.548Z,-8.85
2022-12-12T00:22:24.143Z,-8.93
2022-12-12T00:25:25.880Z,-8.93
2022-12-12T00:28:28.332Z,-8.98
2022-12-12T00:31:30.049Z,-8.98
2022-12-12T00:34:31.639Z,-8.90
2022-12-12T00:37:33.143Z,-8.81
2022-12-12T00:40:35.347Z,-8.77
2022-12-12T00:43:36.955Z,-8.75
2022-12-12T00:46:39.357Z,-8.85
2022-12-12T00:49:40.965Z,-8.94
2022-12-12T00:52:42.578Z,-8.92
2022-12-12T00:55:44.089Z,-8.97
2022-12-12T00:58:46.002Z,-8.98
2022-12-12T01:01:47.730Z,-9.02
2022-12-12T01:04:49.269Z,-9.10
2022-12-12T01:07:52.670Z,-9.03
2022-12-12T01:10:54.660Z,-8.97
2022-12-12T01:13:56.768Z,-9.00
2022-12-12T01:16:58.532Z,-8.92
2022-12-12T01:20:00.110Z,-8.93
2022-12-12T01:23:01.702Z,-8.96
2022-12-12T01:26:08.149Z,-8.96
2022-12-12T01:29:09.667Z,-8.86
2022-12-12T01:32:11.284Z,-8.86
2022-12-12T01:35:12.954Z,-8.99
2022-12-12T01:38:14.603Z,-9.14
2022-12-12T01:41:17.194Z,-9.15
2022-12-12T01:44:40.303Z,-9.12
2022-12-12T01:47:41.806Z,-9.06
2022-12-12T01:50:44.608Z,-9.07
2022-12-12T01:53:49.346Z,-9.10
2022-12-12T01:56:53.282Z,-9.14
2022-12-12T01:59:55.145Z,-9.24
2022-12-12T02:02:57.076Z,-9.34
2022-12-12T02:06:02.379Z,-9.36
2022-12-12T02:09:08.092Z,-9.23
2022-12-12T02:12:14.728Z,-9.22
2022-12-12T02:15:18.522Z,-9.35
2022-12-12T02:18:37.731Z,-9.39
2022-12-12T02:21:55.686Z,-9.31
2022-12-12T02:25:25.218Z,-9.34
2022-12-12T02:28:41.272Z,-9.23
2022-12-12T02:31:58.973Z,-9.24
2022-12-12T02:35:03.902Z,-9.24
2022-12-12T02:38:19.739Z,-9.35
2022-12-12T02:41:26.882Z,-9.41
2022-12-12T02:44:35.849Z,-9.39
2022-12-12T02:47:43.283Z,-9.38
2022-12-12T02:50:48.112Z,-9.41
2022-12-12T02:53:49.653Z,-9.42
2022-12-12T02:56:52.867Z,-9.45
2022-12-12T03:00:01.709Z,-9.45
2022-12-12T03:03:43.767Z,-9.40
2022-12-12T03:07:22.277Z,-9.42
2022-12-12T03:11:00.008Z,-9.41
2022-12-12T03:14:14.769Z,-9.46
2022-12-12T03:17:28.603Z,-9.46
2022-12-12T03:20:40.686Z,-9.40
2022-12-12T03:23:47.901Z,-9.40
2022-12-12T03:26:54.614Z,-9.34
2022-12-12T03:30:02.479Z,-9.38
2022-12-12T03:33:11.775Z,-9.48
2022-12-12T03:36:27.556Z,-9.58
2022-12-12T03:40:01.466Z,-9.63
2022-12-12T03:43:09.662Z,-9.64
2022-12-12T03:46:19.654Z,-9.60
2022-12-12T03:49:26.274Z,-9.48
2022-12-12T03:52:35.016Z,-9.41
2022-12-12T03:55:43.785Z,-9.53
2022-12-12T03:59:02.544Z,-9.63
2022-12-12T04:02:12.917Z,-9.75
2022-12-12T04:05:18.502Z,-9.76
2022-12-12T04:08:20.819Z,-9.77
2022-12-12T04:11:40.996Z,-9.66
2022-12-12T04:14:51.708Z,-9.65
2022-12-12T04:18:17.323Z,-9.60
2022-12-12T04:21:49.538Z,-9.63
2022-12-12T04:25:16.202Z,-9.54
2022-12-12T04:28:18.663Z,-9.53
2022-12-12T04:31:25.365Z,-9.57
2022-12-12T04:35:05.187Z,-9.54
2022-12-12T04:38:13.504Z,-9.57
2022-12-12T04:41:18.091Z,-9.61
2022-12-12T04:44:23.144Z,-9.73
2022-12-12T04:47:29.243Z,-9.74
2022-12-12T04:50:32.854Z,-9.59
2022-12-12T04:53:39.561Z,-9.62
2022-12-12T04:56:44.381Z,-9.61
2022-12-12T04:59:46.221Z,-9.58
2022-12-12T05:02:57.806Z,-9.64
2022-12-12T05:06:08.856Z,-9.78
2022-12-12T05:09:11.840Z,-9.90
2022-12-12T05:12:16.000Z,-9.96
2022-12-12T05:15:19.556Z,-9.92
2022-12-12T05:18:22.502Z,-9.99
2022-12-12T05:21:24.068Z,-10.06
2022-12-12T05:24:30.752Z,-10.00
2022-12-12T05:27:32.275Z,-9.92
2022-12-12T05:30:33.971Z,-9.95
2022-12-12T05:33:35.470Z,-10.01
2022-12-12T05:36:36.978Z,-10.03
2022-12-12T05:39:38.564Z,-10.12
2022-12-12T05:42:40.673Z,-10.19
2022-12-12T05:45:42.373Z,-10.26
2022-12-12T05:48:51.719Z,-10.35
2022-12-12T05:51:54.733Z,-10.43
2022-12-12T05:54:56.270Z,-10.29
2022-12-12T05:57:57.930Z,-10.34
2022-12-12T06:01:03.212Z,-10.34
2022-12-12T06:04:05.555Z,-10.30
2022-12-12T06:07:07.180Z,-10.33
2022-12-12T06:10:08.893Z,-10.36
2022-12-12T06:13:10.474Z,-10.30
2022-12-12T06:16:16.057Z,-10.29
2022-12-12T06:19:20.935Z,-10.31
2022-12-12T06:22:22.668Z,-10.42
2022-12-12T06:25:24.599Z,-10.48
2022-12-12T06:28:26.136Z,-10.47
2022-12-12T06:31:27.652Z,-10.40
2022-12-12T06:34:29.194Z,-10.32
2022-12-12T06:37:30.758Z,-10.16
2022-12-12T06:40:33.135Z,-10.09
2022-12-12T06:43:34.723Z,-9.93
2022-12-12T06:46:36.579Z,-9.86
2022-12-12T06:49:38.379Z,-9.89
2022-12-12T06:52:39.934Z,-10.09
2022-12-12T06:55:43.302Z,-10.32
2022-12-12T06:58:45.034Z,-10.41
2022-12-12T07:01:47.017Z,-10.38
2022-12-12T07:04:48.629Z,-10.47
2022-12-12T07:07:50.274Z,-10.51
2022-12-12T07:10:51.976Z,-10.44
2022-12-12T07:13:55.759Z,-10.42
2022-12-12T07:16:57.363Z,-10.48
2022-12-12T07:19:58.927Z,-10.49
2022-12-12T07:23:00.495Z,-10.42
2022-12-12T07:26:11.431Z,-10.38
2022-12-12T07:29:13.031Z,-10.24
2022-12-12T07:32:14.532Z,-10.07
2022-12-12T07:35:16.267Z,-10.00
2022-12-12T07:38:17.804Z,-9.89
2022-12-12T07:41:20.828Z,-9.79
2022-12-12T07:44:24.421Z,-9.68
2022-12-12T07:47:26.007Z,-9.64
2022-12-12T07:50:27.550Z,-9.54
2022-12-12T07:53:30.031Z,-9.46
2022-12-12T07:56:31.544Z,-9.34
2022-12-12T07:59:33.046Z,-9.21
2022-12-12T08:02:34.799Z,-9.13
2022-12-12T08:05:40.682Z,-9.10
2022-12-12T08:08:43.588Z,-9.03
2022-12-12T08:11:46.699Z,-8.98
2022-12-12T08:14:49.017Z,-8.93
2022-12-12T08:17:50.676Z,-8.82
2022-12-12T08:20:52.240Z,-8.79
2022-12-12T08:24:02.332Z,-8.77
2022-12-12T08:27:04.060Z,-8.82
2022-12-12T08:30:06.293Z,-8.80
2022-12-12T08:33:08.425Z,-8.83
2022-12-12T08:36:13.979Z,-8.83
2022-12-12T08:39:23.156Z,-8.70
2022-12-12T08:42:24.716Z,-8.66
2022-12-12T08:45:26.255Z,-8.61
2022-12-12T08:48:28.288Z,-8.55
2022-12-12T08:51:29.871Z,-8.47
2022-12-12T08:54:31.706Z,-8.45
2022-12-12T08:57:33.615Z,-8.38
2022-12-12T09:00:35.608Z,-8.27
2022-12-12T09:03:37.223Z,-8.16
2022-12-12T09:06:38.825Z,-8.10
2022-12-12T09:09:40.367Z,-8.01
2022-12-12T09:12:42.331Z,-7.95
2022-12-12T09:15:44.103Z,-7.81
2022-12-12T09:18:48.938Z,-7.67
2022-12-12T09:21:51.151Z,-7.51
2022-12-12T09:24:52.798Z,-7.41
2022-12-12T09:27:54.483Z,-7.27
2022-12-12T09:30:55.998Z,-7.09
2022-12-12T09:33:57.468Z,-7.03
2022-12-12T09:36:59.083Z,-6.94
2022-12-12T09:40:00.578Z,-6.84
2022-12-12T09:43:02.777Z,-6.81
2022-12-12T09:46:16.383Z,-6.92
2022-12-12T09:49:43.921Z,-6.89
2022-12-12T09:52:46.421Z,-6.79
2022-12-12T09:55:58.277Z,-6.63
2022-12-12T09:59:36.793Z,-6.43
2022-12-12T10:03:16.909Z,-6.32
2022-12-12T10:06:37.854Z,-6.40
2022-12-12T10:10:12.688Z,-6.49
2022-12-12T10:13:26.713Z,-6.67
2022-12-12T10:16:31.660Z,-6.46
2022-12-12T10:19:42.492Z,-6.13
2022-12-12T10:23:13.151Z,-6.06
2022-12-12T10:26:14.664Z,-5.77
2022-12-12T10:30:04.085Z,-5.67
2022-12-12T10:33:43.626Z,-5.49
2022-12-12T10:37:09.920Z,-5.38
2022-12-12T10:40:23.747Z,-5.40
2022-12-12T10:44:00.567Z,-5.42
2022-12-12T10:47:06.494Z,-5.29
2022-12-12T10:50:27.309Z,-5.26
2022-12-12T10:53:31.211Z,-5.23
2022-12-12T10:56:34.224Z,-5.05
2022-12-12T10:59:47.447Z,-4.86
2022-12-12T11:02:49.092Z,-4.63
2022-12-12T11:05:51.070Z,-4.46
2022-12-12T11:09:06.178Z,-4.01
2022-12-12T11:12:16.729Z,-3.81
2022-12-12T11:15:18.403Z,-3.53
2022-12-12T11:18:22.706Z,-3.57
2022-12-12T11:21:24.547Z,-3.62
2022-12-12T11:24:31.471Z,-3.29
2022-12-12T11:27:40.769Z,-3.17
2022-12-12T11:30:44.136Z,-3.06
2022-12-12T11:33:49.190Z,-3.20
2022-12-12T11:36:50.774Z,-3.03
2022-12-12T11:39:54.615Z,-2.99
2022-12-12T11:43:07.848Z,-2.84
2022-12-12T11:46:13.711Z,-2.65
2022-12-12T11:49:19.509Z,-2.61
2022-12-12T11:52:26.950Z,-2.50
2022-12-12T11:55:52.203Z,-2.44
2022-12-12T11:59:11.477Z,-2.46
2022-12-12T12:02:29.386Z,-2.44
2022-12-12T12:06:04.680Z,-2.35
2022-12-12T12:09:22.311Z,-2.32
2022-12-12T12:12:57.838Z,-2.25
2022-12-12T12:15:59.315Z,-2.34
2022-12-12T12:19:19.210Z,-2.72
2022-12-12T12:22:35.659Z,-2.67
2022-12-12T12:25:55.961Z,-2.99
2022-12-12T12:29:15.696Z,-2.90
2022-12-12T12:32:34.426Z,-2.61
2022-12-12T12:36:06.767Z,-3.05
2022-12-12T12:39:17.188Z,-2.81
2022-12-12T12:42:57.572Z,-2.62
2022-12-12T12:46:14.622Z,-2.55
2022-12-12T12:49:30.957Z,-2.29
2022-12-12T12:52:52.272Z,-1.91
2022-12-12T12:55:58.783Z,-1.76
2022-12-12T12:59:04.387Z,-1.72
2022-12-12T13:02:27.386Z,-1.75
2022-12-12T13:05:44.159Z,-1.98
2022-12-12T13:09:13.892Z,-2.16
2022-12-12T13:12:27.458Z,-2.25
2022-12-12T13:15:34.641Z,-2.14
2022-12-12T13:18:51.901Z,-2.09
2022-12-12T13:22:08.496Z,-2.07
2022-12-12T13:25:18.926Z,-2.14
2022-12-12T13:28:35.418Z,-2.36
2022-12-12T13:31:43.260Z,-2.70
2022-12-12T13:34:48.255Z,-2.89
2022-12-12T13:37:54.064Z,-3.04
2022-12-12T13:41:01.601Z,-3.16
2022-12-12T13:44:03.184Z,-3.15
2022-12-12T13:47:12.234Z,-3.16
2022-12-12T13:50:22.632Z,-3.24
2022-12-12T13:53:24.242Z,-3.26
2022-12-12T13:56:52.491Z,-3.61
2022-12-12T13:59:54.156Z,-3.67
2022-12-12T14:03:04.744Z,-3.63
2022-12-12T14:06:12.312Z,-3.67
2022-12-12T14:09:21.527Z,-3.73
2022-12-12T14:12:33.510Z,-3.54
2022-12-12T14:15:40.141Z,-3.71
2022-12-12T14:18:58.968Z,-4.15
2022-12-12T14:22:01.155Z,-4.24
2022-12-12T14:25:11.716Z,-4.32
2022-12-12T14:28:25.809Z,-4.49
2022-12-12T14:31:35.080Z,-4.56
2022-12-12T14:34:58.304Z,-4.48
2022-12-12T14:38:27.769Z,-4.59
2022-12-12T14:41:38.500Z,-4.59
2022-12-12T14:44:47.845Z,-4.62
2022-12-12T14:48:15.535Z,-4.53
2022-12-12T14:51:25.848Z,-4.45
2022-12-12T14:54:30.934Z,-4.38
2022-12-12T14:57:32.752Z,-4.49
2022-12-12T15:00:34.347Z,-4.51
2022-12-12T15:03:48.303Z,-4.53
2022-12-12T15:06:54.545Z,-4.59
2022-12-12T15:09:56.482Z,-4.43
2022-12-12T15:12:58.165Z,-4.39
2022-12-12T15:15:59.862Z,-4.45
2022-12-12T15:19:02.391Z,-4.48
2022-12-12T15:22:11.399Z,-4.50
2022-12-12T15:25:25.148Z,-4.48
2022-12-12T15:28:27.342Z,-4.51
2022-12-12T15:31:28.929Z,-4.55
2022-12-12T15:34:40.336Z,-4.76
2022-12-12T15:37:42.099Z,-4.80
2022-12-12T15:40:47.714Z,-4.79
2022-12-12T15:43:49.392Z,-4.75
2022-12-12T15:46:51.260Z,-4.72
2022-12-12T15:49:53.622Z,-4.77
2022-12-12T15:53:01.745Z,-4.85
2022-12-12T15:56:10.355Z,-4.72
2022-12-12T15:59:21.389Z,-4.63
2022-12-12T16:02:32.218Z,-4.61
2022-12-12T16:05:36.890Z,-4.68
2022-12-12T16:08:44.665Z,-4.75
2022-12-12T16:11:48.487Z,-4.79
2022-12-12T16:14:50.064Z,-4.69
2022-12-12T16:18:04.759Z,-4.59
2022-12-12T16:21:08.181Z,-4.60
2022-12-12T16:24:21.725Z,-4.64
2022-12-12T16:27:23.276Z,-4.62
2022-12-12T16:30:26.520Z,-4.55
2022-12-12T16:33:36.146Z,-4.57
2022-12-12T16:36:41.850Z,-4.80
2022-12-12T16:39:44.375Z,-4.87
2022-12-12T16:43:09.421Z,-5.04
2022-12-12T16:46:23.378Z,-5.23
2022-12-12T16:49:24.977Z,-5.24
2022-12-12T16:52:26.731Z,-5.30
2022-12-12T16:55:28.636Z,-5.39
2022-12-12T16:58:30.189Z,-5.56
2022-12-12T17:01:35.944Z,-5.63
2022-12-12T17:04:40.187Z,-5.55
2022-12-12T17:07:41.860Z,-5.61
2022-12-12T17:10:46.053Z,-5.71
2022-12-12T17:13:49.219Z,-5.61
2022-12-12T17:16:51.675Z,-5.67
2022-12-12T17:19:53.196Z,-5.79
2022-12-12T17:22:54.828Z,-5.71
2022-12-12T17:26:03.103Z,-5.72
2022-12-12T17:29:07.565Z,-5.84
2022-12-12T17:32:09.113Z,-5.93
2022-12-12T17:35:10.684Z,-5.94
2022-12-12T17:38:16.185Z,-6.04
2022-12-12T17:41:18.074Z,-6.36
2022-12-12T17:44:23.733Z,-6.50
2022-12-12T17:47:25.749Z,-6.61
2022-12-12T17:50:27.284Z,-6.68
2022-12-12T17:53:38.231Z,-6.71
2022-12-12T17:56:39.863Z,-6.88
2022-12-12T17:59:42.524Z,-6.94
2022-12-12T18:02:44.424Z,-6.93
2022-12-12T18:05:45.983Z,-7.08
2022-12-12T18:08:48.976Z,-7.11
2022-12-12T18:11:50.500Z,-7.18
2022-12-12T18:14:52.127Z,-7.23
2022-12-12T18:17:53.682Z,-7.42
2022-12-12T18:20:55.275Z,-7.56
2022-12-12T18:23:58.350Z,-7.68
2022-12-12T18:27:01.232Z,-7.87
2022-12-12T18:30:02.748Z,-7.94
2022-12-12T18:33:04.262Z,-8.03
2022-12-12T18:36:13.302Z,-7.91
2022-12-12T18:39:14.987Z,-8.01
2022-12-12T18:42:16.826Z,-7.97
2022-12-12T18:45:18.334Z,-8.11
2022-12-12T18:48:19.918Z,-8.19
2022-12-12T18:51:24.526Z,-8.17
2022-12-12T18:54:26.127Z,-8.22
2022-12-12T18:57:28.015Z,-8.38
2022-12-12T19:00:30.109Z,-8.40
2022-12-12T19:03:31.678Z,-8.55
2022-12-12T19:06:36.007Z,-8.50
2022-12-12T19:09:37.568Z,-8.44
2022-12-12T19:12:39.108Z,-8.34
2022-12-12T19:15:40.677Z,-8.37
2022-12-12T19:18:42.919Z,-8.33
2022-12-12T19:21:53.586Z,-8.29
2022-12-12T19:24:55.166Z,-8.41
2022-12-12T19:27:58.131Z,-8.38
2022-12-12T19:31:00.354Z,-8.43
2022-12-12T19:34:06.638Z,-8.44
2022-12-12T19:37:08.221Z,-8.48
2022-12-12T19:40:10.764Z,-8.38
2022-12-12T19:43:12.462Z,-8.42
2022-12-12T19:46:17.046Z,-8.55
2022-12-12T19:49:18.691Z,-8.49
2022-12-12T19:52:20.283Z,-8.43
2022-12-12T19:55:21.933Z,-8.43
2022-12-12T19:58:23.439Z,-8.41
2022-12-12T20:01:28.602Z,-8.57
2022-12-12T20:04:30.484Z,-8.75
2022-12-12T20:07:32.192Z,-8.84
2022-12-12T20:10:38.808Z,-8.95
2022-12-12T20:13:40.821Z,-9.04
2022-12-12T20:16:43.513Z,-9.03
2022-12-12T20:19:47.321Z,-8.98
2022-12-12T20:22:48.837Z,-8.90
2022-12-12T20:25:50.402Z,-8.83
2022-12-12T20:28:53.478Z,-8.84
2022-12-12T20:31:55.026Z,-8.69
2022-12-12T20:34:56.565Z,-8.65
2022-12-12T20:37:59.348Z,-8.64
2022-12-12T20:41:01.677Z,-8.58
2022-12-12T20:44:05.636Z,-8.50
2022-12-12T20:47:09.807Z,-8.42
2022-12-12T20:50:13.527Z,-8.42
2022-12-12T20:53:15.026Z,-8.27
2022-12-12T20:56:19.019Z,-8.33
2022-12-12T20:59:20.539Z,-8.18
2022-12-12T21:02:25.031Z,-8.01
2022-12-12T21:05:30.284Z,-7.88
2022-12-12T21:08:31.938Z,-8.01
2022-12-12T21:11:34.053Z,-8.02
2022-12-12T21:14:36.905Z,-7.89
2022-12-12T21:17:38.476Z,-7.87
2022-12-12T21:20:44.174Z,-7.76
2022-12-12T21:23:46.184Z,-7.75
2022-12-12T21:26:48.516Z,-7.66
2022-12-12T21:29:49.991Z,-7.70
2022-12-12T21:32:51.555Z,-7.68
2022-12-12T21:35:53.980Z,-7.75
2022-12-12T21:38:57.381Z,-7.95
2022-12-12T21:41:58.881Z,-7.82
2022-12-12T21:45:00.705Z,-7.76
2022-12-12T21:48:02.190Z,-7.83
2022-12-12T21:51:07.007Z,-7.71
2022-12-12T21:54:09.995Z,-7.65
2022-12-12T21:57:12.759Z,-7.60
2022-12-12T22:00:14.527Z,-7.51
2022-12-12T22:03:16.051Z,-7.47
2022-12-12T22:06:27.033Z,-7.53
2022-12-12T22:09:28.616Z,-7.61
2022-12-12T22:12:31.562Z,-7.71
2022-12-12T22:15:33.006Z,-7.77
2022-12-12T22:18:34.583Z,-7.77
2022-12-12T22:21:36.603Z,-7.76
2022-12-12T22:24:38.151Z,-7.79
2022-12-12T22:27:39.700Z,-7.79
2022-12-12T22:30:42.085Z,-7.99
2022-12-12T22:33:44.519Z,-7.97
2022-12-12T22:36:46.948Z,-8.13
2022-12-12T22:39:48.511Z,-8.17
2022-12-12T22:42:50.087Z,-8.28
2022-12-12T22:45:51.651Z,-8.32
2022-12-12T22:48:54.983Z,-8.57
2022-12-12T22:51:57.876Z,-8.73
2022-12-12T22:54:59.524Z,-8.67
2022-12-12T22:58:01.195Z,-8.60
2022-12-12T23:01:11.978Z,-8.66
2022-12-12T23:04:14.166Z,-8.75
2022-12-12T23:07:15.841Z,-9.00
2022-12-12T23:10:17.975Z,-9.37
2022-12-12T23:13:19.967Z,-9.33
2022-12-12T23:16:24.752Z,-9.31
2022-12-12T23:19:28.742Z,-9.25
2022-12-12T23:22:30.907Z,-9.32
2022-12-12T23:25:32.533Z,-9.32
2022-12-12T23:28:35.272Z,-9.34
2022-12-12T23:31:38.635Z,-9.53
2022-12-12T23:34:40.385Z,-9.59
2022-12-12T23:37:41.983Z,-9.58
2022-12-12T23:40:43.893Z,-9.56
2022-12-12T23:43:45.595Z,-9.57
2022-12-12T23:46:47.426Z,-9.63
2022-12-12T23:49:49.027Z,-9.71
2022-12-12T23:52:50.640Z,-9.76
2022-12-12T23:55:52.640Z,-9.79
2022-12-12T23:58:55.822Z,-9.76
